sensor_id;sensor_type;location;lat;lon;timestamp;P1;durP1;ratioP1;P2;durP2;ratioP2
5299;SDS011;70402;42.670;23.258;2024-01-06T00:01:52;16.90;;;8.97;;
5299;SDS011;70402;42.670;23.258;2024-01-06T00:04:19;23.40;;;11.97;;
5299;SDS011;70402;42.670;23.258;2024-01-06T00:06:45;29.30;;;10.47;;
5299;SDS011;70402;42.670;23.258;2024-01-06T00:09:11;19.60;;;10.40;;
5299;SDS011;70402;42.670;23.258;2024-01-06T00:11:37;17.97;;;10.67;;
5299;SDS011;70402;42.670;23.258;2024-01-06T00:14:04;18.47;;;10.00;;
5299;SDS011;70402;42.670;23.258;2024-01-06T00:16:30;13.87;;;8.13;;
5299;SDS011;70402;42.670;23.258;2024-01-06T00:18:56;3.63;;;3.00;;
5299;SDS011;70402;42.670;23.258;2024-01-06T00:21:24;11.10;;;5.43;;
5299;SDS011;70402;42.670;23.258;2024-01-06T00:23:51;9.57;;;5.77;;
5299;SDS011;70402;42.670;23.258;2024-01-06T00:26:18;9.03;;;5.20;;
5299;SDS011;70402;42.670;23.258;2024-01-06T00:28:44;19.23;;;7.67;;
5299;SDS011;70402;42.670;23.258;2024-01-06T00:31:12;13.93;;;7.07;;
5299;SDS011;70402;42.670;23.258;2024-01-06T00:33:38;15.77;;;7.37;;
5299;SDS011;70402;42.670;23.258;2024-01-06T00:36:06;17.13;;;8.97;;
5299;SDS011;70402;42.670;23.258;2024-01-06T00:38:32;19.43;;;10.30;;
5299;SDS011;70402;42.670;23.258;2024-01-06T00:41:00;17.50;;;9.00;;
5299;SDS011;70402;42.670;23.258;2024-01-06T00:43:26;27.03;;;10.67;;
5299;SDS011;70402;42.670;23.258;2024-01-06T00:45:52;21.23;;;9.80;;
5299;SDS011;70402;42.670;23.258;2024-01-06T00:48:18;22.57;;;10.57;;
5299;SDS011;70402;42.670;23.258;2024-01-06T00:50:45;18.90;;;10.40;;
5299;SDS011;70402;42.670;23.258;2024-01-06T00:53:11;20.83;;;9.27;;
5299;SDS011;70402;42.670;23.258;2024-01-06T00:55:38;15.97;;;9.23;;
5299;SDS011;70402;42.670;23.258;2024-01-06T00:58:04;13.47;;;8.30;;
5299;SDS011;70402;42.670;23.258;2024-01-06T01:00:30;16.93;;;9.27;;
5299;SDS011;70402;42.670;23.258;2024-01-06T01:02:56;19.70;;;9.10;;
5299;SDS011;70402;42.670;23.258;2024-01-06T01:05:22;16.53;;;8.77;;
5299;SDS011;70402;42.670;23.258;2024-01-06T01:07:48;18.07;;;9.07;;
5299;SDS011;70402;42.670;23.258;2024-01-06T01:10:15;20.00;;;8.90;;
5299;SDS011;70402;42.670;23.258;2024-01-06T01:12:41;16.30;;;9.57;;
5299;SDS011;70402;42.670;23.258;2024-01-06T01:15:07;31.17;;;14.73;;
5299;SDS011;70402;42.670;23.258;2024-01-06T01:17:33;17.67;;;9.07;;
5299;SDS011;70402;42.670;23.258;2024-01-06T01:20:00;18.60;;;9.33;;
5299;SDS011;70402;42.670;23.258;2024-01-06T01:22:26;16.73;;;8.17;;
5299;SDS011;70402;42.670;23.258;2024-01-06T01:24:52;12.53;;;7.57;;
5299;SDS011;70402;42.670;23.258;2024-01-06T01:27:18;10.20;;;6.40;;
5299;SDS011;70402;42.670;23.258;2024-01-06T01:29:45;11.10;;;6.70;;
5299;SDS011;70402;42.670;23.258;2024-01-06T01:32:12;12.30;;;7.10;;
5299;SDS011;70402;42.670;23.258;2024-01-06T01:34:38;10.23;;;6.73;;
5299;SDS011;70402;42.670;23.258;2024-01-06T01:37:05;12.33;;;7.47;;
5299;SDS011;70402;42.670;23.258;2024-01-06T01:39:31;13.67;;;7.90;;
5299;SDS011;70402;42.670;23.258;2024-01-06T01:41:57;10.07;;;6.77;;
5299;SDS011;70402;42.670;23.258;2024-01-06T01:44:23;9.00;;;5.97;;
5299;SDS011;70402;42.670;23.258;2024-01-06T01:46:49;12.83;;;6.37;;
5299;SDS011;70402;42.670;23.258;2024-01-06T01:49:16;8.20;;;5.63;;
5299;SDS011;70402;42.670;23.258;2024-01-06T01:51:42;11.73;;;6.60;;
5299;SDS011;70402;42.670;23.258;2024-01-06T01:54:09;8.17;;;5.57;;
5299;SDS011;70402;42.670;23.258;2024-01-06T01:56:36;10.60;;;6.10;;
5299;SDS011;70402;42.670;23.258;2024-01-06T01:59:04;10.07;;;5.20;;
5299;SDS011;70402;42.670;23.258;2024-01-06T02:01:32;11.50;;;4.50;;
5299;SDS011;70402;42.670;23.258;2024-01-06T02:03:58;9.30;;;6.33;;
5299;SDS011;70402;42.670;23.258;2024-01-06T02:06:25;9.77;;;5.60;;
5299;SDS011;70402;42.670;23.258;2024-01-06T02:08:51;10.50;;;5.93;;
5299;SDS011;70402;42.670;23.258;2024-01-06T02:11:17;12.57;;;6.50;;
5299;SDS011;70402;42.670;23.258;2024-01-06T02:13:43;8.10;;;5.80;;
5299;SDS011;70402;42.670;23.258;2024-01-06T02:16:09;11.87;;;7.27;;
5299;SDS011;70402;42.670;23.258;2024-01-06T02:18:35;12.93;;;6.80;;
5299;SDS011;70402;42.670;23.258;2024-01-06T02:21:02;10.17;;;6.40;;
5299;SDS011;70402;42.670;23.258;2024-01-06T02:23:28;10.50;;;6.43;;
5299;SDS011;70402;42.670;23.258;2024-01-06T02:25:55;12.63;;;6.03;;
5299;SDS011;70402;42.670;23.258;2024-01-06T02:28:21;14.10;;;6.80;;
5299;SDS011;70402;42.670;23.258;2024-01-06T02:30:48;15.43;;;7.20;;
5299;SDS011;70402;42.670;23.258;2024-01-06T02:33:14;10.13;;;7.00;;
5299;SDS011;70402;42.670;23.258;2024-01-06T02:35:40;13.87;;;7.33;;
5299;SDS011;70402;42.670;23.258;2024-01-06T02:38:06;13.57;;;7.90;;
5299;SDS011;70402;42.670;23.258;2024-01-06T02:40:34;22.33;;;10.87;;
5299;SDS011;70402;42.670;23.258;2024-01-06T02:43:00;17.30;;;8.90;;
5299;SDS011;70402;42.670;23.258;2024-01-06T02:45:26;13.20;;;7.33;;
5299;SDS011;70402;42.670;23.258;2024-01-06T02:47:53;11.03;;;5.57;;
5299;SDS011;70402;42.670;23.258;2024-01-06T02:50:19;12.53;;;5.03;;
5299;SDS011;70402;42.670;23.258;2024-01-06T02:52:46;11.83;;;6.47;;
5299;SDS011;70402;42.670;23.258;2024-01-06T02:55:13;9.93;;;5.97;;
5299;SDS011;70402;42.670;23.258;2024-01-06T02:57:39;9.53;;;5.60;;
5299;SDS011;70402;42.670;23.258;2024-01-06T03:00:08;10.03;;;5.93;;
5299;SDS011;70402;42.670;23.258;2024-01-06T03:02:35;14.00;;;6.67;;
5299;SDS011;70402;42.670;23.258;2024-01-06T03:05:02;16.40;;;6.10;;
5299;SDS011;70402;42.670;23.258;2024-01-06T03:07:29;9.50;;;5.57;;
5299;SDS011;70402;42.670;23.258;2024-01-06T03:09:55;6.87;;;3.80;;
5299;SDS011;70402;42.670;23.258;2024-01-06T03:12:21;6.53;;;4.37;;
5299;SDS011;70402;42.670;23.258;2024-01-06T03:14:47;7.73;;;4.40;;
5299;SDS011;70402;42.670;23.258;2024-01-06T03:17:13;9.80;;;5.40;;
5299;SDS011;70402;42.670;23.258;2024-01-06T03:19:39;5.87;;;3.90;;
5299;SDS011;70402;42.670;23.258;2024-01-06T03:22:06;7.30;;;4.53;;
5299;SDS011;70402;42.670;23.258;2024-01-06T03:24:32;7.00;;;4.20;;
5299;SDS011;70402;42.670;23.258;2024-01-06T03:26:58;10.83;;;5.10;;
5299;SDS011;70402;42.670;23.258;2024-01-06T03:29:24;11.73;;;4.80;;
5299;SDS011;70402;42.670;23.258;2024-01-06T03:31:50;5.60;;;5.00;;
5299;SDS011;70402;42.670;23.258;2024-01-06T03:34:16;7.33;;;4.63;;
5299;SDS011;70402;42.670;23.258;2024-01-06T03:36:43;8.80;;;4.40;;
5299;SDS011;70402;42.670;23.258;2024-01-06T03:39:09;9.40;;;5.00;;
5299;SDS011;70402;42.670;23.258;2024-01-06T03:41:35;5.37;;;4.03;;
5299;SDS011;70402;42.670;23.258;2024-01-06T03:44:01;8.07;;;4.87;;
5299;SDS011;70402;42.670;23.258;2024-01-06T03:46:28;6.60;;;4.87;;
5299;SDS011;70402;42.670;23.258;2024-01-06T03:48:54;7.00;;;4.60;;
5299;SDS011;70402;42.670;23.258;2024-01-06T03:51:20;6.93;;;3.90;;
5299;SDS011;70402;42.670;23.258;2024-01-06T03:53:47;9.60;;;5.63;;
5299;SDS011;70402;42.670;23.258;2024-01-06T03:56:13;10.53;;;6.60;;
5299;SDS011;70402;42.670;23.258;2024-01-06T03:58:39;9.00;;;5.23;;
5299;SDS011;70402;42.670;23.258;2024-01-06T04:01:05;10.00;;;5.80;;
5299;SDS011;70402;42.670;23.258;2024-01-06T04:03:32;8.00;;;5.33;;
5299;SDS011;70402;42.670;23.258;2024-01-06T04:05:58;8.47;;;5.47;;
5299;SDS011;70402;42.670;23.258;2024-01-06T04:08:24;16.43;;;4.93;;
5299;SDS011;70402;42.670;23.258;2024-01-06T04:10:50;7.73;;;4.90;;
5299;SDS011;70402;42.670;23.258;2024-01-06T04:13:16;8.43;;;5.20;;
5299;SDS011;70402;42.670;23.258;2024-01-06T04:15:43;8.80;;;5.23;;
5299;SDS011;70402;42.670;23.258;2024-01-06T04:18:09;15.13;;;5.90;;
5299;SDS011;70402;42.670;23.258;2024-01-06T04:20:35;11.43;;;5.80;;
5299;SDS011;70402;42.670;23.258;2024-01-06T04:23:02;8.73;;;5.37;;
5299;SDS011;70402;42.670;23.258;2024-01-06T04:25:28;9.73;;;6.10;;
5299;SDS011;70402;42.670;23.258;2024-01-06T04:27:54;13.03;;;6.30;;
5299;SDS011;70402;42.670;23.258;2024-01-06T04:30:20;8.97;;;6.17;;
5299;SDS011;70402;42.670;23.258;2024-01-06T04:32:46;8.47;;;5.33;;
5299;SDS011;70402;42.670;23.258;2024-01-06T04:35:16;8.40;;;5.13;;
5299;SDS011;70402;42.670;23.258;2024-01-06T04:37:42;12.17;;;4.93;;
5299;SDS011;70402;42.670;23.258;2024-01-06T04:40:08;14.23;;;5.67;;
5299;SDS011;70402;42.670;23.258;2024-01-06T04:42:35;11.57;;;6.00;;
5299;SDS011;70402;42.670;23.258;2024-01-06T04:45:01;6.80;;;4.80;;
5299;SDS011;70402;42.670;23.258;2024-01-06T04:47:28;10.57;;;5.77;;
5299;SDS011;70402;42.670;23.258;2024-01-06T04:49:55;8.40;;;5.00;;
5299;SDS011;70402;42.670;23.258;2024-01-06T04:52:22;9.83;;;5.70;;
5299;SDS011;70402;42.670;23.258;2024-01-06T04:54:48;9.43;;;5.90;;
5299;SDS011;70402;42.670;23.258;2024-01-06T04:57:14;11.40;;;6.17;;
5299;SDS011;70402;42.670;23.258;2024-01-06T04:59:41;11.77;;;6.33;;
5299;SDS011;70402;42.670;23.258;2024-01-06T05:02:07;10.67;;;6.37;;
5299;SDS011;70402;42.670;23.258;2024-01-06T05:04:33;12.33;;;7.13;;
5299;SDS011;70402;42.670;23.258;2024-01-06T05:06:59;14.13;;;6.60;;
5299;SDS011;70402;42.670;23.258;2024-01-06T05:09:26;14.03;;;6.80;;
5299;SDS011;70402;42.670;23.258;2024-01-06T05:11:52;11.67;;;5.80;;
5299;SDS011;70402;42.670;23.258;2024-01-06T05:14:18;10.57;;;6.20;;
5299;SDS011;70402;42.670;23.258;2024-01-06T05:16:44;11.77;;;6.70;;
5299;SDS011;70402;42.670;23.258;2024-01-06T05:19:11;8.33;;;5.80;;
5299;SDS011;70402;42.670;23.258;2024-01-06T05:21:37;10.50;;;5.87;;
5299;SDS011;70402;42.670;23.258;2024-01-06T05:24:03;8.57;;;5.80;;
5299;SDS011;70402;42.670;23.258;2024-01-06T05:26:30;11.57;;;5.30;;
5299;SDS011;70402;42.670;23.258;2024-01-06T05:28:56;13.33;;;6.10;;
5299;SDS011;70402;42.670;23.258;2024-01-06T05:31:22;8.90;;;5.90;;
5299;SDS011;70402;42.670;23.258;2024-01-06T05:33:48;11.43;;;6.00;;
5299;SDS011;70402;42.670;23.258;2024-01-06T05:36:18;12.33;;;6.53;;
5299;SDS011;70402;42.670;23.258;2024-01-06T05:38:44;10.43;;;5.70;;
5299;SDS011;70402;42.670;23.258;2024-01-06T05:41:10;15.47;;;7.87;;
5299;SDS011;70402;42.670;23.258;2024-01-06T05:43:36;18.00;;;10.33;;
5299;SDS011;70402;42.670;23.258;2024-01-06T05:46:03;20.63;;;10.90;;
5299;SDS011;70402;42.670;23.258;2024-01-06T05:48:30;14.60;;;8.23;;
5299;SDS011;70402;42.670;23.258;2024-01-06T05:50:56;13.77;;;8.00;;
5299;SDS011;70402;42.670;23.258;2024-01-06T05:53:22;10.07;;;7.57;;
5299;SDS011;70402;42.670;23.258;2024-01-06T05:55:48;8.50;;;6.27;;
5299;SDS011;70402;42.670;23.258;2024-01-06T05:58:15;11.47;;;6.37;;
5299;SDS011;70402;42.670;23.258;2024-01-06T06:00:42;8.10;;;5.13;;
5299;SDS011;70402;42.670;23.258;2024-01-06T06:03:08;12.83;;;5.33;;
5299;SDS011;70402;42.670;23.258;2024-01-06T06:05:34;10.97;;;6.20;;
5299;SDS011;70402;42.670;23.258;2024-01-06T06:08:00;10.10;;;6.70;;
5299;SDS011;70402;42.670;23.258;2024-01-06T06:10:26;16.47;;;8.60;;
5299;SDS011;70402;42.670;23.258;2024-01-06T06:13:05;10.80;;;6.27;;
5299;SDS011;70402;42.670;23.258;2024-01-06T06:15:32;15.10;;;7.50;;
5299;SDS011;70402;42.670;23.258;2024-01-06T06:17:58;11.17;;;7.27;;
5299;SDS011;70402;42.670;23.258;2024-01-06T06:20:25;12.70;;;7.40;;
5299;SDS011;70402;42.670;23.258;2024-01-06T06:22:51;9.53;;;5.30;;
5299;SDS011;70402;42.670;23.258;2024-01-06T06:25:18;10.20;;;6.87;;
5299;SDS011;70402;42.670;23.258;2024-01-06T06:27:44;9.53;;;5.70;;
5299;SDS011;70402;42.670;23.258;2024-01-06T06:30:10;11.43;;;6.60;;
5299;SDS011;70402;42.670;23.258;2024-01-06T06:32:36;11.50;;;6.63;;
5299;SDS011;70402;42.670;23.258;2024-01-06T06:35:02;18.60;;;8.30;;
5299;SDS011;70402;42.670;23.258;2024-01-06T06:37:29;11.03;;;7.40;;
5299;SDS011;70402;42.670;23.258;2024-01-06T06:39:55;13.93;;;7.20;;
5299;SDS011;70402;42.670;23.258;2024-01-06T06:42:21;13.30;;;7.40;;
5299;SDS011;70402;42.670;23.258;2024-01-06T06:44:47;11.47;;;7.20;;
5299;SDS011;70402;42.670;23.258;2024-01-06T06:47:14;14.10;;;7.97;;
5299;SDS011;70402;42.670;23.258;2024-01-06T06:49:40;16.53;;;9.33;;
5299;SDS011;70402;42.670;23.258;2024-01-06T06:52:06;20.00;;;9.43;;
5299;SDS011;70402;42.670;23.258;2024-01-06T06:54:32;18.27;;;10.37;;
5299;SDS011;70402;42.670;23.258;2024-01-06T06:56:59;14.87;;;9.03;;
5299;SDS011;70402;42.670;23.258;2024-01-06T06:59:25;14.63;;;8.63;;
5299;SDS011;70402;42.670;23.258;2024-01-06T07:01:51;15.67;;;9.20;;
5299;SDS011;70402;42.670;23.258;2024-01-06T07:04:17;16.07;;;10.10;;
5299;SDS011;70402;42.670;23.258;2024-01-06T07:06:43;17.30;;;8.37;;
5299;SDS011;70402;42.670;23.258;2024-01-06T07:09:10;15.93;;;9.27;;
5299;SDS011;70402;42.670;23.258;2024-01-06T07:11:36;22.70;;;10.40;;
5299;SDS011;70402;42.670;23.258;2024-01-06T07:14:02;19.90;;;10.30;;
5299;SDS011;70402;42.670;23.258;2024-01-06T07:16:28;18.50;;;10.90;;
5299;SDS011;70402;42.670;23.258;2024-01-06T07:18:54;21.60;;;9.30;;
5299;SDS011;70402;42.670;23.258;2024-01-06T07:21:20;18.10;;;10.70;;
5299;SDS011;70402;42.670;23.258;2024-01-06T07:23:48;15.93;;;9.90;;
5299;SDS011;70402;42.670;23.258;2024-01-06T07:26:14;18.70;;;10.77;;
5299;SDS011;70402;42.670;23.258;2024-01-06T07:28:40;19.00;;;10.37;;
5299;SDS011;70402;42.670;23.258;2024-01-06T07:31:06;18.83;;;10.73;;
5299;SDS011;70402;42.670;23.258;2024-01-06T07:33:33;21.33;;;11.60;;
5299;SDS011;70402;42.670;23.258;2024-01-06T07:35:59;25.80;;;9.83;;
5299;SDS011;70402;42.670;23.258;2024-01-06T07:38:26;17.40;;;9.60;;
5299;SDS011;70402;42.670;23.258;2024-01-06T07:40:53;20.83;;;10.40;;
5299;SDS011;70402;42.670;23.258;2024-01-06T07:43:19;14.27;;;8.73;;
5299;SDS011;70402;42.670;23.258;2024-01-06T07:45:46;17.60;;;9.63;;
5299;SDS011;70402;42.670;23.258;2024-01-06T07:48:12;18.90;;;10.63;;
5299;SDS011;70402;42.670;23.258;2024-01-06T07:50:38;17.83;;;10.83;;
5299;SDS011;70402;42.670;23.258;2024-01-06T07:53:04;16.20;;;9.70;;
5299;SDS011;70402;42.670;23.258;2024-01-06T07:55:31;17.57;;;9.57;;
5299;SDS011;70402;42.670;23.258;2024-01-06T07:57:57;15.63;;;8.90;;
5299;SDS011;70402;42.670;23.258;2024-01-06T08:00:23;20.27;;;10.67;;
5299;SDS011;70402;42.670;23.258;2024-01-06T08:02:49;24.70;;;11.83;;
5299;SDS011;70402;42.670;23.258;2024-01-06T08:05:15;18.20;;;10.43;;
5299;SDS011;70402;42.670;23.258;2024-01-06T08:07:42;17.83;;;9.43;;
5299;SDS011;70402;42.670;23.258;2024-01-06T08:10:08;11.17;;;7.17;;
5299;SDS011;70402;42.670;23.258;2024-01-06T08:12:34;15.13;;;8.30;;
5299;SDS011;70402;42.670;23.258;2024-01-06T08:15:00;15.63;;;8.00;;
5299;SDS011;70402;42.670;23.258;2024-01-06T08:17:27;21.00;;;9.10;;
5299;SDS011;70402;42.670;23.258;2024-01-06T08:19:53;16.13;;;9.17;;
5299;SDS011;70402;42.670;23.258;2024-01-06T08:22:19;14.73;;;8.90;;
5299;SDS011;70402;42.670;23.258;2024-01-06T08:24:45;13.67;;;8.67;;
5299;SDS011;70402;42.670;23.258;2024-01-06T08:27:12;17.40;;;9.70;;
5299;SDS011;70402;42.670;23.258;2024-01-06T08:29:38;13.60;;;8.37;;
5299;SDS011;70402;42.670;23.258;2024-01-06T08:32:04;22.50;;;9.73;;
5299;SDS011;70402;42.670;23.258;2024-01-06T08:34:31;14.27;;;8.07;;
5299;SDS011;70402;42.670;23.258;2024-01-06T08:36:57;14.40;;;9.20;;
5299;SDS011;70402;42.670;23.258;2024-01-06T08:39:24;14.20;;;8.20;;
5299;SDS011;70402;42.670;23.258;2024-01-06T08:41:50;16.70;;;9.83;;
5299;SDS011;70402;42.670;23.258;2024-01-06T08:44:16;17.27;;;9.07;;
5299;SDS011;70402;42.670;23.258;2024-01-06T08:46:42;17.83;;;8.80;;
5299;SDS011;70402;42.670;23.258;2024-01-06T08:49:08;17.10;;;9.20;;
5299;SDS011;70402;42.670;23.258;2024-01-06T08:51:34;17.17;;;9.83;;
5299;SDS011;70402;42.670;23.258;2024-01-06T08:54:01;18.53;;;8.13;;
5299;SDS011;70402;42.670;23.258;2024-01-06T08:56:30;13.97;;;8.80;;
5299;SDS011;70402;42.670;23.258;2024-01-06T08:58:56;16.90;;;8.80;;
5299;SDS011;70402;42.670;23.258;2024-01-06T09:01:22;22.87;;;9.23;;
5299;SDS011;70402;42.670;23.258;2024-01-06T09:03:48;23.17;;;9.90;;
5299;SDS011;70402;42.670;23.258;2024-01-06T09:06:15;19.83;;;10.10;;
5299;SDS011;70402;42.670;23.258;2024-01-06T09:08:41;17.37;;;9.73;;
5299;SDS011;70402;42.670;23.258;2024-01-06T09:11:07;16.23;;;9.20;;
5299;SDS011;70402;42.670;23.258;2024-01-06T09:13:33;21.33;;;9.43;;
5299;SDS011;70402;42.670;23.258;2024-01-06T09:16:00;14.60;;;8.27;;
5299;SDS011;70402;42.670;23.258;2024-01-06T09:18:26;29.63;;;8.77;;
5299;SDS011;70402;42.670;23.258;2024-01-06T09:20:53;19.40;;;8.60;;
5299;SDS011;70402;42.670;23.258;2024-01-06T09:23:19;16.13;;;9.97;;
5299;SDS011;70402;42.670;23.258;2024-01-06T09:25:46;17.27;;;8.90;;
5299;SDS011;70402;42.670;23.258;2024-01-06T09:28:17;14.07;;;8.90;;
5299;SDS011;70402;42.670;23.258;2024-01-06T09:30:43;12.20;;;7.90;;
5299;SDS011;70402;42.670;23.258;2024-01-06T09:33:09;19.20;;;10.30;;
5299;SDS011;70402;42.670;23.258;2024-01-06T09:35:35;14.70;;;8.67;;
5299;SDS011;70402;42.670;23.258;2024-01-06T09:38:02;14.77;;;9.10;;
5299;SDS011;70402;42.670;23.258;2024-01-06T09:40:28;16.70;;;9.00;;
5299;SDS011;70402;42.670;23.258;2024-01-06T09:42:57;15.50;;;10.00;;
5299;SDS011;70402;42.670;23.258;2024-01-06T09:45:23;32.87;;;9.93;;
5299;SDS011;70402;42.670;23.258;2024-01-06T09:47:51;22.27;;;11.30;;
5299;SDS011;70402;42.670;23.258;2024-01-06T09:50:18;26.23;;;11.60;;
5299;SDS011;70402;42.670;23.258;2024-01-06T09:52:45;21.57;;;11.03;;
5299;SDS011;70402;42.670;23.258;2024-01-06T09:55:20;23.77;;;11.90;;
5299;SDS011;70402;42.670;23.258;2024-01-06T09:57:48;29.10;;;13.43;;
5299;SDS011;70402;42.670;23.258;2024-01-06T10:00:14;36.63;;;14.23;;
5299;SDS011;70402;42.670;23.258;2024-01-06T10:02:40;24.07;;;13.43;;
5299;SDS011;70402;42.670;23.258;2024-01-06T10:05:08;27.17;;;15.17;;
5299;SDS011;70402;42.670;23.258;2024-01-06T10:07:35;32.50;;;16.83;;
5299;SDS011;70402;42.670;23.258;2024-01-06T10:10:01;33.03;;;16.30;;
5299;SDS011;70402;42.670;23.258;2024-01-06T10:12:28;25.30;;;14.50;;
5299;SDS011;70402;42.670;23.258;2024-01-06T10:14:54;31.50;;;16.07;;
5299;SDS011;70402;42.670;23.258;2024-01-06T10:17:21;32.40;;;16.33;;
5299;SDS011;70402;42.670;23.258;2024-01-06T10:19:48;36.97;;;16.03;;
5299;SDS011;70402;42.670;23.258;2024-01-06T10:22:14;31.40;;;15.20;;
5299;SDS011;70402;42.670;23.258;2024-01-06T10:24:40;23.50;;;13.87;;
5299;SDS011;70402;42.670;23.258;2024-01-06T10:27:07;32.97;;;15.73;;
5299;SDS011;70402;42.670;23.258;2024-01-06T10:29:34;29.60;;;15.63;;
5299;SDS011;70402;42.670;23.258;2024-01-06T10:32:00;30.50;;;15.37;;
5299;SDS011;70402;42.670;23.258;2024-01-06T10:34:26;25.57;;;15.10;;
5299;SDS011;70402;42.670;23.258;2024-01-06T10:36:52;26.30;;;14.57;;
5299;SDS011;70402;42.670;23.258;2024-01-06T10:39:19;29.90;;;16.17;;
5299;SDS011;70402;42.670;23.258;2024-01-06T10:41:48;32.20;;;15.40;;
5299;SDS011;70402;42.670;23.258;2024-01-06T10:44:14;28.70;;;15.57;;
5299;SDS011;70402;42.670;23.258;2024-01-06T10:46:41;28.03;;;14.53;;
5299;SDS011;70402;42.670;23.258;2024-01-06T10:49:08;28.97;;;15.53;;
5299;SDS011;70402;42.670;23.258;2024-01-06T10:51:38;26.80;;;15.43;;
5299;SDS011;70402;42.670;23.258;2024-01-06T10:54:05;30.53;;;14.93;;
5299;SDS011;70402;42.670;23.258;2024-01-06T10:56:34;30.80;;;14.77;;
5299;SDS011;70402;42.670;23.258;2024-01-06T10:59:03;22.70;;;13.27;;
5299;SDS011;70402;42.670;23.258;2024-01-06T11:01:29;26.37;;;13.20;;
5299;SDS011;70402;42.670;23.258;2024-01-06T11:03:56;23.73;;;12.20;;
5299;SDS011;70402;42.670;23.258;2024-01-06T11:06:23;23.80;;;12.73;;
5299;SDS011;70402;42.670;23.258;2024-01-06T11:11:30;18.03;;;10.10;;
5299;SDS011;70402;42.670;23.258;2024-01-06T11:14:30;20.73;;;9.73;;
5299;SDS011;70402;42.670;23.258;2024-01-06T11:16:49;21.37;;;9.97;;
5299;SDS011;70402;42.670;23.258;2024-01-06T11:24:55;25.53;;;8.40;;
5299;SDS011;70402;42.670;23.258;2024-01-06T11:27:26;20.07;;;9.80;;
5299;SDS011;70402;42.670;23.258;2024-01-06T11:29:56;14.90;;;9.23;;
5299;SDS011;70402;42.670;23.258;2024-01-06T11:32:27;16.87;;;10.23;;
5299;SDS011;70402;42.670;23.258;2024-01-06T11:34:53;18.00;;;9.77;;
5299;SDS011;70402;42.670;23.258;2024-01-06T11:42:41;10.40;;;7.60;;
5299;SDS011;70402;42.670;23.258;2024-01-06T11:45:07;13.30;;;7.13;;
5299;SDS011;70402;42.670;23.258;2024-01-06T11:47:34;16.43;;;8.73;;
5299;SDS011;70402;42.670;23.258;2024-01-06T11:50:01;18.80;;;8.60;;
5299;SDS011;70402;42.670;23.258;2024-01-06T11:52:31;14.50;;;7.40;;
5299;SDS011;70402;42.670;23.258;2024-01-06T11:54:57;13.47;;;7.53;;
5299;SDS011;70402;42.670;23.258;2024-01-06T11:57:27;12.20;;;8.23;;
5299;SDS011;70402;42.670;23.258;2024-01-06T11:59:53;7.33;;;5.20;;
5299;SDS011;70402;42.670;23.258;2024-01-06T12:02:20;10.37;;;5.97;;
5299;SDS011;70402;42.670;23.258;2024-01-06T12:04:50;4.80;;;3.50;;
5299;SDS011;70402;42.670;23.258;2024-01-06T12:07:17;13.47;;;4.20;;
5299;SDS011;70402;42.670;23.258;2024-01-06T12:09:44;12.80;;;5.37;;
5299;SDS011;70402;42.670;23.258;2024-01-06T12:12:11;7.40;;;4.07;;
5299;SDS011;70402;42.670;23.258;2024-01-06T12:14:40;8.47;;;4.87;;
5299;SDS011;70402;42.670;23.258;2024-01-06T12:17:11;6.93;;;4.10;;
5299;SDS011;70402;42.670;23.258;2024-01-06T12:19:38;8.50;;;4.40;;
5299;SDS011;70402;42.670;23.258;2024-01-06T12:22:06;8.07;;;4.70;;
5299;SDS011;70402;42.670;23.258;2024-01-06T12:24:33;10.00;;;4.77;;
5299;SDS011;70402;42.670;23.258;2024-01-06T12:26:59;7.03;;;4.40;;
5299;SDS011;70402;42.670;23.258;2024-01-06T12:29:28;8.87;;;3.93;;
5299;SDS011;70402;42.670;23.258;2024-01-06T12:31:54;12.83;;;4.80;;
5299;SDS011;70402;42.670;23.258;2024-01-06T12:34:21;9.00;;;5.20;;
5299;SDS011;70402;42.670;23.258;2024-01-06T12:36:48;7.83;;;4.47;;
5299;SDS011;70402;42.670;23.258;2024-01-06T12:39:18;8.53;;;4.83;;
5299;SDS011;70402;42.670;23.258;2024-01-06T12:41:44;11.33;;;4.87;;
5299;SDS011;70402;42.670;23.258;2024-01-06T12:44:10;8.10;;;5.13;;
5299;SDS011;70402;42.670;23.258;2024-01-06T12:46:37;11.10;;;5.00;;
5299;SDS011;70402;42.670;23.258;2024-01-06T12:49:03;9.77;;;5.07;;
5299;SDS011;70402;42.670;23.258;2024-01-06T12:51:30;10.93;;;5.80;;
5299;SDS011;70402;42.670;23.258;2024-01-06T12:53:56;7.00;;;4.00;;
5299;SDS011;70402;42.670;23.258;2024-01-06T12:56:22;7.87;;;4.20;;
5299;SDS011;70402;42.670;23.258;2024-01-06T12:58:48;7.83;;;4.37;;
5299;SDS011;70402;42.670;23.258;2024-01-06T13:01:15;13.80;;;5.17;;
5299;SDS011;70402;42.670;23.258;2024-01-06T13:03:42;9.67;;;5.00;;
5299;SDS011;70402;42.670;23.258;2024-01-06T13:06:09;9.07;;;4.57;;
5299;SDS011;70402;42.670;23.258;2024-01-06T13:08:35;8.07;;;4.67;;
5299;SDS011;70402;42.670;23.258;2024-01-06T13:11:02;9.93;;;5.00;;
5299;SDS011;70402;42.670;23.258;2024-01-06T13:13:28;9.33;;;4.50;;
5299;SDS011;70402;42.670;23.258;2024-01-06T13:15:56;8.30;;;4.90;;
5299;SDS011;70402;42.670;23.258;2024-01-06T13:18:22;9.20;;;5.47;;
5299;SDS011;70402;42.670;23.258;2024-01-06T13:20:48;7.93;;;4.60;;
5299;SDS011;70402;42.670;23.258;2024-01-06T13:23:15;8.23;;;4.30;;
5299;SDS011;70402;42.670;23.258;2024-01-06T13:25:41;7.57;;;5.10;;
5299;SDS011;70402;42.670;23.258;2024-01-06T13:28:07;8.40;;;4.70;;
5299;SDS011;70402;42.670;23.258;2024-01-06T13:30:33;10.50;;;5.17;;
5299;SDS011;70402;42.670;23.258;2024-01-06T13:33:00;9.37;;;4.27;;
5299;SDS011;70402;42.670;23.258;2024-01-06T13:35:26;9.57;;;5.07;;
5299;SDS011;70402;42.670;23.258;2024-01-06T13:37:54;6.20;;;3.97;;
5299;SDS011;70402;42.670;23.258;2024-01-06T13:40:23;8.60;;;4.50;;
5299;SDS011;70402;42.670;23.258;2024-01-06T13:42:50;7.50;;;4.20;;
5299;SDS011;70402;42.670;23.258;2024-01-06T13:45:17;7.83;;;4.10;;
5299;SDS011;70402;42.670;23.258;2024-01-06T13:47:44;8.10;;;4.20;;
5299;SDS011;70402;42.670;23.258;2024-01-06T13:50:16;7.10;;;4.30;;
5299;SDS011;70402;42.670;23.258;2024-01-06T13:52:42;6.03;;;4.13;;
5299;SDS011;70402;42.670;23.258;2024-01-06T13:55:10;8.50;;;4.17;;
5299;SDS011;70402;42.670;23.258;2024-01-06T13:57:36;7.00;;;3.90;;
5299;SDS011;70402;42.670;23.258;2024-01-06T14:00:12;7.50;;;5.13;;
5299;SDS011;70402;42.670;23.258;2024-01-06T14:02:43;8.93;;;3.60;;
5299;SDS011;70402;42.670;23.258;2024-01-06T14:05:10;8.00;;;4.10;;
5299;SDS011;70402;42.670;23.258;2024-01-06T14:07:37;18.13;;;4.50;;
5299;SDS011;70402;42.670;23.258;2024-01-06T14:10:05;7.23;;;4.33;;
5299;SDS011;70402;42.670;23.258;2024-01-06T14:12:32;38.83;;;15.13;;
5299;SDS011;70402;42.670;23.258;2024-01-06T14:14:58;8.50;;;4.83;;
5299;SDS011;70402;42.670;23.258;2024-01-06T14:17:26;10.67;;;4.20;;
5299;SDS011;70402;42.670;23.258;2024-01-06T14:19:52;10.43;;;5.87;;
5299;SDS011;70402;42.670;23.258;2024-01-06T14:22:18;14.40;;;6.43;;
5299;SDS011;70402;42.670;23.258;2024-01-06T14:24:45;11.80;;;6.40;;
5299;SDS011;70402;42.670;23.258;2024-01-06T14:27:11;12.80;;;5.60;;
5299;SDS011;70402;42.670;23.258;2024-01-06T14:29:37;11.03;;;6.80;;
5299;SDS011;70402;42.670;23.258;2024-01-06T14:32:04;19.87;;;8.70;;
5299;SDS011;70402;42.670;23.258;2024-01-06T14:34:30;14.40;;;7.73;;
5299;SDS011;70402;42.670;23.258;2024-01-06T14:36:57;14.77;;;7.03;;
5299;SDS011;70402;42.670;23.258;2024-01-06T14:39:23;10.60;;;7.43;;
5299;SDS011;70402;42.670;23.258;2024-01-06T14:41:49;16.80;;;7.50;;
5299;SDS011;70402;42.670;23.258;2024-01-06T14:44:17;13.37;;;7.63;;
5299;SDS011;70402;42.670;23.258;2024-01-06T14:46:45;17.33;;;8.57;;